sensor_id;sensor_type;location;lat;lon;timestamp;pressure;altitude;pressure_sealevel;temperature;humidity
61769;BME280;47669;48.712;9.016;2023-01-19T00:01:21;95475.50;;;-5.89;nan
61769;BME280;47669;48.712;9.016;2023-01-19T00:03:46;95470.00;;;-5.95;nan
61769;BME280;47669;48.712;9.016;2023-01-19T00:06:12;95467.91;;;-5.99;nan
61769;BME280;47669;48.712;9.016;2023-01-19T00:08:37;95478.69;;;-6.05;nan
61769;BME280;47669;48.712;9.016;2023-01-19T00:11:03;95484.69;;;-6.15;nan
61769;BME280;47669;48.712;9.016;2023-01-19T00:13:29;95484.16;;;-6.18;nan
61769;BME280;47669;48.712;9.016;2023-01-19T00:15:55;95486.84;;;-6.20;nan
61769;BME280;47669;48.712;9.016;2023-01-19T00:18:20;95487.44;;;-5.98;nan
61769;BME280;47669;48.712;9.016;2023-01-19T00:20:46;95488.34;;;-6.27;nan
61769;BME280;47669;48.712;9.016;2023-01-19T00:23:12;95486.25;;;-6.41;nan
61769;BME280;47669;48.712;9.016;2023-01-19T00:25:38;95487.28;;;-6.24;nan
61769;BME280;47669;48.712;9.016;2023-01-19T00:28:11;95495.13;;;-6.36;nan
61769;BME280;47669;48.712;9.016;2023-01-19T00:30:38;95486.91;;;-6.29;nan
61769;BME280;47669;48.712;9.016;2023-01-19T00:33:04;95488.78;;;-6.31;nan
61769;BME280;47669;48.712;9.016;2023-01-19T00:35:29;95488.56;;;-6.48;nan
61769;BME280;47669;48.712;9.016;2023-01-19T00:37:56;95493.50;;;-6.37;nan
61769;BME280;47669;48.712;9.016;2023-01-19T00:40:21;95485.97;;;-6.38;nan
61769;BME280;47669;48.712;9.016;2023-01-19T00:42:47;95492.28;;;-6.32;nan
61769;BME280;47669;48.712;9.016;2023-01-19T00:45:22;95495.97;;;-6.45;nan
61769;BME280;47669;48.712;9.016;2023-01-19T00:47:49;95492.28;;;-6.32;nan
61769;BME280;47669;48.712;9.016;2023-01-19T00:50:19;95495.50;;;-6.78;nan
61769;BME280;47669;48.712;9.016;2023-01-19T00:52:44;95489.16;;;-6.74;nan
61769;BME280;47669;48.712;9.016;2023-01-19T00:55:12;95496.03;;;-6.84;nan
61769;BME280;47669;48.712;9.016;2023-01-19T00:57:38;95492.81;;;-6.96;nan
61769;BME280;47669;48.712;9.016;2023-01-19T01:00:06;95508.97;;;-6.76;nan
61769;BME280;47669;48.712;9.016;2023-01-19T01:02:35;95503.44;;;-6.71;nan
61769;BME280;47669;48.712;9.016;2023-01-19T01:05:01;95499.00;;;-6.79;nan
61769;BME280;47669;48.712;9.016;2023-01-19T01:07:28;95499.00;;;-6.79;nan
61769;BME280;47669;48.712;9.016;2023-01-19T01:09:53;95500.34;;;-6.75;nan
61769;BME280;47669;48.712;9.016;2023-01-19T01:12:20;95502.25;;;-6.77;nan
61769;BME280;47669;48.712;9.016;2023-01-19T01:14:46;95494.28;;;-6.83;nan
61769;BME280;47669;48.712;9.016;2023-01-19T01:17:11;95493.47;;;-6.64;nan
61769;BME280;47669;48.712;9.016;2023-01-19T01:19:38;95501.84;;;-6.82;nan
61769;BME280;47669;48.712;9.016;2023-01-19T01:22:04;95500.75;;;-6.79;nan
61769;BME280;47669;48.712;9.016;2023-01-19T01:24:29;95504.81;;;-6.96;nan
61769;BME280;47669;48.712;9.016;2023-01-19T01:26:55;95509.66;;;-6.83;nan
61769;BME280;47669;48.712;9.016;2023-01-19T01:29:20;95509.75;;;-6.56;nan
61769;BME280;47669;48.712;9.016;2023-01-19T01:31:45;95507.38;;;-6.96;nan
61769;BME280;47669;48.712;9.016;2023-01-19T01:34:11;95515.69;;;-6.55;nan
61769;BME280;47669;48.712;9.016;2023-01-19T01:36:36;95515.59;;;-6.73;nan
61769;BME280;47669;48.712;9.016;2023-01-19T01:39:02;95515.56;;;-6.63;nan
61769;BME280;47669;48.712;9.016;2023-01-19T01:41:27;95520.94;;;-6.66;nan
61769;BME280;47669;48.712;9.016;2023-01-19T01:43:54;95515.56;;;-6.63;nan
61769;BME280;47669;48.712;9.016;2023-01-19T01:46:23;95513.00;;;-6.53;nan
61769;BME280;47669;48.712;9.016;2023-01-19T01:49:06;95517.53;;;-6.38;nan
61769;BME280;47669;48.712;9.016;2023-01-19T01:51:37;95517.75;;;-6.21;nan
61769;BME280;47669;48.712;9.016;2023-01-19T01:54:22;95517.25;;;-6.44;nan
61769;BME280;47669;48.712;9.016;2023-01-19T01:56:51;95516.63;;;-6.56;nan
61769;BME280;47669;48.712;9.016;2023-01-19T01:59:24;95521.56;;;-6.35;nan
61769;BME280;47669;48.712;9.016;2023-01-19T02:02:00;95513.00;;;-6.53;nan
61769;BME280;47669;48.712;9.016;2023-01-19T02:04:48;95519.53;;;-6.31;nan
61769;BME280;47669;48.712;9.016;2023-01-19T02:07:22;95520.81;;;-5.90;nan
61769;BME280;47669;48.712;9.016;2023-01-19T02:10:09;95516.41;;;-6.25;nan
61769;BME280;47669;48.712;9.016;2023-01-19T02:12:53;95515.19;;;-6.21;nan
61769;BME280;47669;48.712;9.016;2023-01-19T02:15:37;95517.94;;;-6.42;nan
61769;BME280;47669;48.712;9.016;2023-01-19T02:18:02;95513.06;;;-6.36;nan
61769;BME280;47669;48.712;9.016;2023-01-19T02:20:29;95514.94;;;-6.28;nan
61769;BME280;47669;48.712;9.016;2023-01-19T02:23:01;95510.09;;;-6.31;nan
61769;BME280;47669;48.712;9.016;2023-01-19T02:25:28;95512.13;;;-6.35;nan
61769;BME280;47669;48.712;9.016;2023-01-19T02:27:53;95509.22;;;-6.12;nan
61769;BME280;47669;48.712;9.016;2023-01-19T02:30:19;95501.09;;;-6.45;nan
61769;BME280;47669;48.712;9.016;2023-01-19T02:32:45;95501.91;;;-6.54;nan
61769;BME280;47669;48.712;9.016;2023-01-19T02:35:10;95502.31;;;-6.49;nan
61769;BME280;47669;48.712;9.016;2023-01-19T02:37:46;95500.72;;;-6.60;nan
61769;BME280;47669;48.712;9.016;2023-01-19T02:40:14;95504.22;;;-6.61;nan
61769;BME280;47669;48.712;9.016;2023-01-19T02:42:47;95516.50;;;-6.64;nan
61769;BME280;47669;48.712;9.016;2023-01-19T02:45:17;95525.38;;;-6.49;nan
61769;BME280;47669;48.712;9.016;2023-01-19T02:47:46;95524.88;;;-6.15;nan
61769;BME280;47669;48.712;9.016;2023-01-19T02:50:34;95511.31;;;-6.35;nan
61769;BME280;47669;48.712;9.016;2023-01-19T02:55:54;95518.34;;;-6.47;nan
61769;BME280;47669;48.712;9.016;2023-01-19T03:01:32;95517.47;;;-6.75;nan
61769;BME280;47669;48.712;9.016;2023-01-19T03:04:12;95518.16;;;-6.73;nan
61769;BME280;47669;48.712;9.016;2023-01-19T03:06:54;95515.94;;;-6.48;nan
61769;BME280;47669;48.712;9.016;2023-01-19T03:09:36;95519.22;;;-6.85;nan
61769;BME280;47669;48.712;9.016;2023-01-19T03:15:17;95522.88;;;-6.88;nan
61769;BME280;47669;48.712;9.016;2023-01-19T03:17:44;95518.97;;;-6.82;nan
61769;BME280;47669;48.712;9.016;2023-01-19T03:20:13;95518.00;;;-6.91;nan
61769;BME280;47669;48.712;9.016;2023-01-19T03:22:41;95521.66;;;-6.94;nan
61769;BME280;47669;48.712;9.016;2023-01-19T03:25:09;95516.75;;;-6.67;nan
61769;BME280;47669;48.712;9.016;2023-01-19T03:27:37;95516.28;;;-6.90;nan
61769;BME280;47669;48.712;9.016;2023-01-19T03:30:55;95513.44;;;-6.97;nan
61769;BME280;47669;48.712;9.016;2023-01-19T03:32:58;95523.78;;;-6.99;nan
61769;BME280;47669;48.712;9.016;2023-01-19T03:35:28;95519.09;;;-7.03;nan
61769;BME280;47669;48.712;9.016;2023-01-19T03:37:57;95518.28;;;-7.04;nan
61769;BME280;47669;48.712;9.016;2023-01-19T03:40:26;95517.63;;;-6.96;nan
61769;BME280;47669;48.712;9.016;2023-01-19T03:42:54;95515.72;;;-7.14;nan
61769;BME280;47669;48.712;9.016;2023-01-19T03:45:20;95523.66;;;-7.26;nan
61769;BME280;47669;48.712;9.016;2023-01-19T03:47:46;95527.31;;;-7.29;nan
61769;BME280;47669;48.712;9.016;2023-01-19T03:50:19;95526.22;;;-7.07;nan
61769;BME280;47669;48.712;9.016;2023-01-19T03:53:08;95537.13;;;-6.95;nan
61769;BME280;47669;48.712;9.016;2023-01-19T03:55:36;95533.09;;;-7.07;nan
61769;BME280;47669;48.712;9.016;2023-01-19T03:58:02;95527.19;;;-7.18;nan
61769;BME280;47669;48.712;9.016;2023-01-19T04:00:28;95525.31;;;-7.06;nan
61769;BME280;47669;48.712;9.016;2023-01-19T04:02:53;95535.38;;;-7.04;nan
61769;BME280;47669;48.712;9.016;2023-01-19T04:05:19;95538.78;;;-7.04;nan
61769;BME280;47669;48.712;9.016;2023-01-19T04:07:50;95538.63;;;-6.83;nan
61769;BME280;47669;48.712;9.016;2023-01-19T04:10:17;95548.19;;;-6.95;nan
61769;BME280;47669;48.712;9.016;2023-01-19T04:12:42;95544.00;;;-6.96;nan
61769;BME280;47669;48.712;9.016;2023-01-19T04:15:07;95540.25;;;-6.82;nan
61769;BME280;47669;48.712;9.016;2023-01-19T04:17:33;95542.91;;;-6.74;nan
61769;BME280;47669;48.712;9.016;2023-01-19T04:19:58;95542.13;;;-6.74;nan
61769;BME280;47669;48.712;9.016;2023-01-19T04:22:24;95536.44;;;-6.68;nan
61769;BME280;47669;48.712;9.016;2023-01-19T04:24:50;95541.41;;;-6.47;nan
61769;BME280;47669;48.712;9.016;2023-01-19T04:27:16;95548.69;;;-5.95;nan
61769;BME280;47669;48.712;9.016;2023-01-19T04:29:42;95545.63;;;-6.08;nan
61769;BME280;47669;48.712;9.016;2023-01-19T04:32:07;95545.06;;;-6.02;nan
61769;BME280;47669;48.712;9.016;2023-01-19T04:34:33;95552.22;;;-6.06;nan
61769;BME280;47669;48.712;9.016;2023-01-19T04:36:58;95556.66;;;-5.98;nan
61769;BME280;47669;48.712;9.016;2023-01-19T04:39:24;95546.56;;;-6.09;nan
61769;BME280;47669;48.712;9.016;2023-01-19T04:41:49;95549.09;;;-6.00;nan
61769;BME280;47669;48.712;9.016;2023-01-19T04:44:16;95550.63;;;-6.07;nan
61769;BME280;47669;48.712;9.016;2023-01-19T04:46:41;95554.78;;;-5.78;nan
61769;BME280;47669;48.712;9.016;2023-01-19T04:49:07;95553.44;;;-6.00;nan
61769;BME280;47669;48.712;9.016;2023-01-19T04:51:33;95551.06;;;-6.21;nan
61769;BME280;47669;48.712;9.016;2023-01-19T04:53:58;95554.59;;;-6.32;nan
61769;BME280;47669;48.712;9.016;2023-01-19T04:56:24;95561.47;;;-6.32;nan
61769;BME280;47669;48.712;9.016;2023-01-19T04:58:49;95558.78;;;-6.41;nan
61769;BME280;47669;48.712;9.016;2023-01-19T05:01:14;95560.41;;;-6.40;nan
61769;BME280;47669;48.712;9.016;2023-01-19T05:03:39;95563.38;;;-6.54;nan
61769;BME280;47669;48.712;9.016;2023-01-19T05:06:05;95569.59;;;-6.57;nan
61769;BME280;47669;48.712;9.016;2023-01-19T05:08:31;95561.50;;;-6.71;nan
61769;BME280;47669;48.712;9.016;2023-01-19T05:10:56;95567.03;;;-6.57;nan
61769;BME280;47669;48.712;9.016;2023-01-19T05:13:22;95563.66;;;-6.57;nan
61769;BME280;47669;48.712;9.016;2023-01-19T05:15:47;95568.66;;;-6.85;nan
61769;BME280;47669;48.712;9.016;2023-01-19T05:18:12;95568.41;;;-6.91;nan
61769;BME280;47669;48.712;9.016;2023-01-19T05:20:37;95569.88;;;-6.79;nan
61769;BME280;47669;48.712;9.016;2023-01-19T05:23:04;95572.16;;;-6.47;nan
61769;BME280;47669;48.712;9.016;2023-01-19T05:25:29;95572.28;;;-6.68;nan
61769;BME280;47669;48.712;9.016;2023-01-19T05:27:54;95566.78;;;-6.83;nan
61769;BME280;47669;48.712;9.016;2023-01-19T05:30:20;95574.97;;;-6.79;nan
61769;BME280;47669;48.712;9.016;2023-01-19T05:32:45;95582.53;;;-6.68;nan
61769;BME280;47669;48.712;9.016;2023-01-19T05:35:10;95589.00;;;-6.83;nan
61769;BME280;47669;48.712;9.016;2023-01-19T05:37:37;95583.34;;;-6.58;nan
61769;BME280;47669;48.712;9.016;2023-01-19T05:40:03;95589.53;;;-6.89;nan
61769;BME280;47669;48.712;9.016;2023-01-19T05:42:29;95585.50;;;-6.63;nan
61769;BME280;47669;48.712;9.016;2023-01-19T05:44:55;95589.53;;;-6.41;nan
61769;BME280;47669;48.712;9.016;2023-01-19T05:47:20;95590.25;;;-6.01;nan
61769;BME280;47669;48.712;9.016;2023-01-19T05:49:45;95596.78;;;-6.17;nan
61769;BME280;47669;48.712;9.016;2023-01-19T05:52:10;95603.25;;;-6.12;nan
61769;BME280;47669;48.712;9.016;2023-01-19T05:54:36;95599.75;;;-6.21;nan
61769;BME280;47669;48.712;9.016;2023-01-19T05:57:04;95600.97;;;-6.25;nan
61769;BME280;47669;48.712;9.016;2023-01-19T05:59:29;95601.13;;;-6.37;nan
61769;BME280;47669;48.712;9.016;2023-01-19T06:01:54;95606.16;;;-5.98;nan
61769;BME280;47669;48.712;9.016;2023-01-19T06:04:21;95606.59;;;-6.12;nan
61769;BME280;47669;48.712;9.016;2023-01-19T06:06:47;95598.81;;;-6.30;nan
61769;BME280;47669;48.712;9.016;2023-01-19T06:09:12;95603.44;;;-6.43;nan
61769;BME280;47669;48.712;9.016;2023-01-19T06:11:37;95602.34;;;-6.60;nan
61769;BME280;47669;48.712;9.016;2023-01-19T06:14:03;95608.25;;;-6.50;nan
61769;BME280;47669;48.712;9.016;2023-01-19T06:16:28;95606.38;;;-6.48;nan
61769;BME280;47669;48.712;9.016;2023-01-19T06:18:53;95608.94;;;-6.67;nan
61769;BME280;47669;48.712;9.016;2023-01-19T06:21:19;95615.16;;;-6.70;nan
61769;BME280;47669;48.712;9.016;2023-01-19T06:23:44;95615.44;;;-6.63;nan
61769;BME280;47669;48.712;9.016;2023-01-19T06:26:10;95609.63;;;-6.46;nan
61769;BME280;47669;48.712;9.016;2023-01-19T06:28:35;95616.09;;;-6.42;nan
61769;BME280;47669;48.712;9.016;2023-01-19T06:31:00;95622.53;;;-6.18;nan
61769;BME280;47669;48.712;9.016;2023-01-19T06:33:26;95623.13;;;-5.87;nan
61769;BME280;47669;48.712;9.016;2023-01-19T06:35:52;95620.91;;;-5.82;nan
61769;BME280;47669;48.712;9.016;2023-01-19T06:38:18;95618.34;;;-5.72;nan
61769;BME280;47669;48.712;9.016;2023-01-19T06:40:44;95622.75;;;-5.64;nan
61769;BME280;47669;48.712;9.016;2023-01-19T06:43:10;95621.19;;;-5.75;nan
61769;BME280;47669;48.712;9.016;2023-01-19T06:45:35;95618.91;;;-5.88;nan
61769;BME280;47669;48.712;9.016;2023-01-19T06:48:03;95614.84;;;-5.81;nan
61769;BME280;47669;48.712;9.016;2023-01-19T06:50:28;95625.31;;;-6.02;nan
61769;BME280;47669;48.712;9.016;2023-01-19T06:52:53;95625.53;;;-5.85;nan
61769;BME280;47669;48.712;9.016;2023-01-19T06:55:19;95628.31;;;-6.06;nan
61769;BME280;47669;48.712;9.016;2023-01-19T06:57:44;95631.00;;;-6.08;nan
61769;BME280;47669;48.712;9.016;2023-01-19T07:00:11;95631.69;;;-5.68;nan
61769;BME280;47669;48.712;9.016;2023-01-19T07:02:40;95625.53;;;-5.85;nan
61769;BME280;47669;48.712;9.016;2023-01-19T07:05:06;95630.38;;;-5.82;nan
61769;BME280;47669;48.712;9.016;2023-01-19T07:07:33;95629.22;;;-5.50;nan
61769;BME280;47669;48.712;9.016;2023-01-19T07:09:58;95636.66;;;-5.29;nan
61769;BME280;47669;48.712;9.016;2023-01-19T07:12:23;95630.63;;;-5.10;nan
61769;BME280;47669;48.712;9.016;2023-01-19T07:14:49;95631.94;;;-5.06;nan
61769;BME280;47669;48.712;9.016;2023-01-19T07:17:14;95626.88;;;-4.98;nan
61769;BME280;47669;48.712;9.016;2023-01-19T07:19:39;95633.44;;;-5.04;nan
61769;BME280;47669;48.712;9.016;2023-01-19T07:22:05;95629.25;;;-5.05;nan
61769;BME280;47669;48.712;9.016;2023-01-19T07:24:30;95632.91;;;-5.07;nan
61769;BME280;47669;48.712;9.016;2023-01-19T07:26:57;95620.66;;;-5.13;nan
61769;BME280;47669;48.712;9.016;2023-01-19T07:29:23;95629.06;;;-5.21;nan
61769;BME280;47669;48.712;9.016;2023-01-19T07:31:49;95627.41;;;-5.40;nan
61769;BME280;47669;48.712;9.016;2023-01-19T07:34:14;95634.97;;;-5.39;nan
61769;BME280;47669;48.712;9.016;2023-01-19T07:36:39;95631.94;;;-5.62;nan
61769;BME280;47669;48.712;9.016;2023-01-19T07:39:05;95627.72;;;-5.53;nan
61769;BME280;47669;48.712;9.016;2023-01-19T07:41:30;95630.53;;;-5.46;nan
61769;BME280;47669;48.712;9.016;2023-01-19T07:43:55;95631.16;;;-5.07;nan
61769;BME280;47669;48.712;9.016;2023-01-19T07:46:20;95631.16;;;-4.89;nan
61769;BME280;47669;48.712;9.016;2023-01-19T07:48:46;95631.41;;;-4.64;nan
61769;BME280;47669;48.712;9.016;2023-01-19T07:51:11;95628.41;;;-4.78;nan
61769;BME280;47669;48.712;9.016;2023-01-19T07:53:42;95636.63;;;-4.74;nan
61769;BME280;47669;48.712;9.016;2023-01-19T07:56:07;95644.59;;;-4.95;nan
61769;BME280;47669;48.712;9.016;2023-01-19T07:58:33;95646.09;;;-4.74;nan
61769;BME280;47669;48.712;9.016;2023-01-19T08:00:58;95650.13;;;-4.72;nan
61769;BME280;47669;48.712;9.016;2023-01-19T08:03:23;95644.41;;;-4.66;nan
61769;BME280;47669;48.712;9.016;2023-01-19T08:05:50;95651.09;;;-4.55;nan
61769;BME280;47669;48.712;9.016;2023-01-19T08:08:16;95642.09;;;-4.15;nan
61769;BME280;47669;48.712;9.016;2023-01-19T08:10:42;95651.25;;;-4.57;nan
61769;BME280;47669;48.712;9.016;2023-01-19T08:13:07;95656.59;;;-4.50;nan
61769;BME280;47669;48.712;9.016;2023-01-19T08:15:32;95657.63;;;-4.43;nan
61769;BME280;47669;48.712;9.016;2023-01-19T08:18:02;95658.22;;;-4.49;nan
61769;BME280;47669;48.712;9.016;2023-01-19T08:20:30;95662.56;;;-4.49;nan
61769;BME280;47669;48.712;9.016;2023-01-19T08:22:56;95657.31;;;-4.58;nan
61769;BME280;47669;48.712;9.016;2023-01-19T08:25:30;95655.78;;;-4.50;nan
61769;BME280;47669;48.712;9.016;2023-01-19T08:27:56;95657.50;;;-4.59;nan
61769;BME280;47669;48.712;9.016;2023-01-19T08:30:21;95660.94;;;-4.50;nan
61769;BME280;47669;48.712;9.016;2023-01-19T08:32:48;95653.50;;;-4.18;nan
61769;BME280;47669;48.712;9.016;2023-01-19T08:35:14;95651.22;;;-4.03;nan
61769;BME280;47669;48.712;9.016;2023-01-19T08:37:39;95658.13;;;-4.21;nan
61769;BME280;47669;48.712;9.016;2023-01-19T08:40:05;95662.34;;;-3.94;nan
61769;BME280;47669;48.712;9.016;2023-01-19T08:42:31;95663.81;;;-3.65;nan
61769;BME280;47669;48.712;9.016;2023-01-19T08:44:56;95661.91;;;-3.29;nan
61769;BME280;47669;48.712;9.016;2023-01-19T08:47:21;95660.97;;;-3.28;nan
61769;BME280;47669;48.712;9.016;2023-01-19T08:49:46;95658.03;;;-3.33;nan
61769;BME280;47669;48.712;9.016;2023-01-19T08:52:12;95656.63;;;-3.19;nan
61769;BME280;47669;48.712;9.016;2023-01-19T08:54:37;95653.16;;;-3.02;nan
61769;BME280;47669;48.712;9.016;2023-01-19T08:57:02;95654.16;;;-3.03;nan
61769;BME280;47669;48.712;9.016;2023-01-19T08:59:27;95655.78;;;-3.36;nan
61769;BME280;47669;48.712;9.016;2023-01-19T09:01:53;95656.19;;;-3.14;nan
61769;BME280;47669;48.712;9.016;2023-01-19T09:04:18;95659.66;;;-2.98;nan
61769;BME280;47669;48.712;9.016;2023-01-19T09:06:43;95672.19;;;-2.94;nan
61769;BME280;47669;48.712;9.016;2023-01-19T09:09:08;95666.69;;;-2.41;nan
61769;BME280;47669;48.712;9.016;2023-01-19T09:11:34;95664.03;;;-2.82;nan
61769;BME280;47669;48.712;9.016;2023-01-19T09:13:59;95671.47;;;-2.70;nan
61769;BME280;47669;48.712;9.016;2023-01-19T09:16:24;95670.66;;;-2.71;nan
61769;BME280;47669;48.712;9.016;2023-01-19T09:18:51;95668.47;;;-2.16;nan
61769;BME280;47669;48.712;9.016;2023-01-19T09:21:16;95678.94;;;-2.18;nan
61769;BME280;47669;48.712;9.016;2023-01-19T09:23:42;95676.22;;;-1.59;nan
61769;BME280;47669;48.712;9.016;2023-01-19T09:26:09;95674.63;;;-1.76;nan
61769;BME280;47669;48.712;9.016;2023-01-19T09:28:36;95680.41;;;-2.07;nan
61769;BME280;47669;48.712;9.016;2023-01-19T09:31:06;95676.06;;;-2.15;nan
61769;BME280;47669;48.712;9.016;2023-01-19T09:33:32;95672.84;;;-1.92;nan
61769;BME280;47669;48.712;9.016;2023-01-19T09:35:57;95675.31;;;-1.27;nan
61769;BME280;47669;48.712;9.016;2023-01-19T09:38:23;95662.44;;;-0.56;nan
61769;BME280;47669;48.712;9.016;2023-01-19T09:40:54;95670.34;;;-0.89;nan
61769;BME280;47669;48.712;9.016;2023-01-19T09:43:38;95669.41;;;-1.60;nan
61769;BME280;47669;48.712;9.016;2023-01-19T09:46:09;95672.41;;;-1.24;nan
61769;BME280;47669;48.712;9.016;2023-01-19T09:48:54;95676.97;;;-1.50;nan
61769;BME280;47669;48.712;9.016;2023-01-19T09:51:26;95678.91;;;-1.36;nan
61769;BME280;47669;48.712;9.016;2023-01-19T09:53:56;95675.63;;;-0.82;nan
61769;BME280;47669;48.712;9.016;2023-01-19T09:56:23;95671.09;;;-1.20;nan
61769;BME280;47669;48.712;9.016;2023-01-19T09:58:49;95676.75;;;-1.16;nan
61769;BME280;47669;48.712;9.016;2023-01-19T10:01:28;95677.00;;;-0.94;nan
61769;BME280;47669;48.712;9.016;2023-01-19T10:04:10;95684.28;;;-2.03;nan
61769;BME280;47669;48.712;9.016;2023-01-19T10:06:39;95685.53;;;-1.42;nan
61769;BME280;47669;48.712;9.016;2023-01-19T10:09:12;95674.53;;;-1.35;nan
61769;BME280;47669;48.712;9.016;2023-01-19T10:11:47;95672.00;;;-1.60;nan
61769;BME280;47669;48.712;9.016;2023-01-19T10:14:22;95680.88;;;-1.63;nan
61769;BME280;47669;48.712;9.016;2023-01-19T10:16:54;95681.88;;;-1.80;nan
61769;BME280;47669;48.712;9.016;2023-01-19T10:19:29;95676.88;;;-1.90;nan
61769;BME280;47669;48.712;9.016;2023-01-19T10:21:59;95678.16;;;-2.19;nan
61769;BME280;47669;48.712;9.016;2023-01-19T10:24:33;95681.06;;;-2.22;nan
61769;BME280;47669;48.712;9.016;2023-01-19T10:27:02;95679.78;;;-2.01;nan
61769;BME280;47669;48.712;9.016;2023-01-19T10:29:36;95673.31;;;-1.64;nan
61769;BME280;47669;48.712;9.016;2023-01-19T10:32:11;95675.25;;;-1.91;nan
61769;BME280;47669;48.712;9.016;2023-01-19T10:34:37;95669.88;;;-1.40;nan
61769;BME280;47669;48.712;9.016;2023-01-19T10:37:17;95678.97;;;-1.13;nan
61769;BME280;47669;48.712;9.016;2023-01-19T10:39:53;95672.19;;;-1.70;nan
61769;BME280;47669;48.712;9.016;2023-01-19T10:42:18;95676.94;;;-1.26;nan
61769;BME280;47669;48.712;9.016;2023-01-19T10:44:44;95675.63;;;-0.82;nan
61769;BME280;47669;48.712;9.016;2023-01-19T10:47:16;95669.59;;;-1.06;nan
61769;BME280;47669;48.712;9.016;2023-01-19T10:49:42;95667.25;;;-1.24;nan
61769;BME280;47669;48.712;9.016;2023-01-19T10:54:43;95668.13;;;-0.69;nan
61769;BME280;47669;48.712;9.016;2023-01-19T10:57:22;95661.41;;;-0.78;nan
61769;BME280;47669;48.712;9.016;2023-01-19T10:59:49;95662.88;;;-0.29;nan
61769;BME280;47669;48.712;9.016;2023-01-19T11:02:22;95662.56;;;-0.03;nan
61769;BME280;47669;48.712;9.016;2023-01-19T11:04:51;95655.53;;;0.73;nan
61769;BME280;47669;48.712;9.016;2023-01-19T11:09:44;95659.28;;;1.52;nan
61769;BME280;47669;48.712;9.016;2023-01-19T11:12:20;95652.13;;;2.47;nan
61769;BME280;47669;48.712;9.016;2023-01-19T11:14:48;95646.81;;;1.11;nan
61769;BME280;47669;48.712;9.016;2023-01-19T11:17:19;95664.19;;;0.13;nan
61769;BME280;47669;48.712;9.016;2023-01-19T11:19:57;95656.25;;;-0.47;nan
61769;BME280;47669;48.712;9.016;2023-01-19T11:22:26;95658.19;;;0.35;nan
61769;BME280;47669;48.712;9.016;2023-01-19T11:24:56;95651.09;;;0.14;nan
61769;BME280;47669;48.712;9.016;2023-01-19T11:27:22;95650.88;;;0.01;nan
61769;BME280;47669;48.712;9.016;2023-01-19T11:29:51;95643.34;;;-0.32;nan
61769;BME280;47669;48.712;9.016;2023-01-19T11:32:20;95642.59;;;2.89;nan
61769;BME280;47669;48.712;9.016;2023-01-19T11:34:46;95650.75;;;1.22;nan
61769;BME280;47669;48.712;9.016;2023-01-19T11:39:49;95644.38;;;0.88;nan
61769;BME280;47669;48.712;9.016;2023-01-19T11:42:16;95643.75;;;0.71;nan
61769;BME280;47669;48.712;9.016;2023-01-19T11:45:03;95636.09;;;1.14;nan
61769;BME280;47669;48.712;9.016;2023-01-19T11:47:38;95632.13;;;1.33;nan
61769;BME280;47669;48.712;9.016;2023-01-19T11:52:44;95625.31;;;0.36;nan
61769;BME280;47669;48.712;9.016;2023-01-19T11:55:36;95626.25;;;0.05;nan
61769;BME280;47669;48.712;9.016;2023-01-19T11:58:04;95618.97;;;-0.14;nan
61769;BME280;47669;48.712;9.016;2023-01-19T12:00:36;95624.53;;;-0.03;nan
61769;BME280;47669;48.712;9.016;2023-01-19T12:03:13;95619.81;;;-0.68;nan
61769;BME280;47669;48.712;9.016;2023-01-19T12:05:45;95621.84;;;-0.32;nan
61769;BME280;47669;48.712;9.016;2023-01-19T12:08:19;95623.22;;;-0.22;nan
61769;BME280;47669;48.712;9.016;2023-01-19T12:10:46;95628.63;;;-0.31;nan
61769;BME280;47669;48.712;9.016;2023-01-19T12:13:23;95627.56;;;-0.68;nan
61769;BME280;47669;48.712;9.016;2023-01-19T12:15:53;95619.38;;;-0.26;nan
61769;BME280;47669;48.712;9.016;2023-01-19T12:18:24;95625.06;;;-0.53;nan
61769;BME280;47669;48.712;9.016;2023-01-19T12:20:53;95628.13;;;-0.27;nan
61769;BME280;47669;48.712;9.016;2023-01-19T12:28:44;95618.75;;;-0.51;nan
61769;BME280;47669;48.712;9.016;2023-01-19T12:31:14;95625.91;;;-0.61;nan
61769;BME280;47669;48.712;9.016;2023-01-19T12:33:41;95616.97;;;-0.50;nan
61769;BME280;47669;48.712;9.016;2023-01-19T12:38:49;95630.09;;;-0.83;nan
61769;BME280;47669;48.712;9.016;2023-01-19T12:46:36;95635.84;;;-0.73;nan
61769;BME280;47669;48.712;9.016;2023-01-19T12:49:24;95631.94;;;-0.69;nan
61769;BME280;47669;48.712;9.016;2023-01-19T12:51:53;95626.91;;;-0.62;nan
61769;BME280;47669;48.712;9.016;2023-01-19T12:54:28;95634.31;;;-0.59;nan
61769;BME280;47669;48.712;9.016;2023-01-19T12:56:58;95629.31;;;-0.61;nan
61769;BME280;47669;48.712;9.016;2023-01-19T12:59:26;95627.41;;;-0.67;nan
61769;BME280;47669;48.712;9.016;2023-01-19T13:18:43;95624.59;;;-0.57;nan
61769;BME280;47669;48.712;9.016;2023-01-19T13:21:10;95628.81;;;-0.56;nan
61769;BME280;47669;48.712;9.016;2023-01-19T13:26:18;95629.66;;;-0.64;nan
61769;BME280;47669;48.712;9.016;2023-01-19T13:28:49;95633.69;;;-0.61;nan
61769;BME280;47669;48.712;9.016;2023-01-19T13:31:15;95630.97;;;-0.68;nan
61769;BME280;47669;48.712;9.016;2023-01-19T13:33:55;95631.91;;;-0.61;nan
61769;BME280;47669;48.712;9.016;2023-01-19T13:38:50;95642.28;;;-0.69;nan
61769;BME280;47669;48.712;9.016;2023-01-19T13:41:17;95648.56;;;-0.63;nan
61769;BME280;47669;48.712;9.016;2023-01-19T13:43:45;95646.03;;;-0.71;nan
61769;BME280;47669;48.712;9.016;2023-01-19T13:46:11;95640.97;;;-0.65;nan
61769;BME280;47669;48.712;9.016;2023-01-19T13:48:38;95637.06;;;-0.61;nan
61769;BME280;47669;48.712;9.016;2023-01-19T13:51:06;95641.22;;;-0.51;nan
61769;BME280;47669;48.712;9.016;2023-01-19T13:53:32;95648.81;;;-0.50;nan
61769;BME280;47669;48.712;9.016;2023-01-19T13:56:28;95646.91;;;-0.56;nan
61769;BME280;47669;48.712;9.016;2023-01-19T14:01:23;95645.88;;;-0.70;nan
61769;BME280;47669;48.712;9.016;2023-01-19T14:03:48;95651.63;;;-0.60;nan
61769;BME280;47669;48.712;9.016;2023-01-19T14:06:32;95649.41;;;-0.71;nan
61769;BME280;47669;48.712;9.016;2023-01-19T14:09:25;95655.78;;;-0.58;nan
61769;BME280;47669;48.712;9.016;2023-01-19T14:12:12;95659.31;;;-0.51;nan
61769;BME280;47669;48.712;9.016;2023-01-19T14:14:38;95658.78;;;-0.70;nan
61769;BME280;47669;48.712;9.016;2023-01-19T14:17:17;95662.47;;;-0.64;nan
61769;BME280;47669;48.712;9.016;2023-01-19T14:19:49;95661.03;;;-0.67;nan
61769;BME280;47669;48.712;9.016;2023-01-19T14:22:14;95657.75;;;-0.61;nan
61769;BME280;47669;48.712;9.016;2023-01-19T14:24:40;95664.28;;;-0.73;nan
61769;BME280;47669;48.712;9.016;2023-01-19T14:27:17;95660.75;;;-0.72;nan